createdAt,value
2019-02-07T00:02:17.239Z,12.05
2019-02-07T00:04:46.803Z,11.70
2019-02-07T00:07:16.589Z,12.18
2019-02-07T00:09:46.193Z,13.10
2019-02-07T00:12:15.750Z,13.32
2019-02-07T00:14:45.505Z,13.25
2019-02-07T00:17:16.023Z,13.53
2019-02-07T00:19:49.203Z,12.80
2019-02-07T00:22:21.467Z,12.73
2019-02-07T00:24:51.040Z,13.85
2019-02-07T00:27:21.051Z,12.88
2019-02-07T00:29:50.754Z,13.70
2019-02-07T00:32:20.455Z,11.43
2019-02-07T00:34:50.365Z,11.88
2019-02-07T00:37:21.834Z,12.43
2019-02-07T00:39:51.476Z,12.65
2019-02-07T00:42:21.239Z,11.45
2019-02-07T00:44:53.725Z,11.53
2019-02-07T00:47:24.775Z,12.00
2019-02-07T00:49:55.935Z,12.73
2019-02-07T00:52:25.700Z,10.60
2019-02-07T00:54:55.515Z,11.85
2019-02-07T00:57:27.563Z,11.75
2019-02-07T00:59:57.937Z,11.70
2019-02-07T01:02:30.867Z,12.15
2019-02-07T01:05:00.871Z,13.85
2019-02-07T01:07:30.599Z,13.20
2019-02-07T01:10:01.787Z,13.80
2019-02-07T01:12:32.596Z,13.38
2019-02-07T01:15:02.613Z,13.00
2019-02-07T01:17:32.223Z,12.98
2019-02-07T01:20:03.526Z,13.00
2019-02-07T01:22:33.146Z,13.07
2019-02-07T01:25:04.046Z,12.33
2019-02-07T01:27:34.351Z,13.77
2019-02-07T01:30:04.740Z,13.22
2019-02-07T01:32:36.140Z,12.13
2019-02-07T01:35:06.942Z,13.40
2019-02-07T01:37:36.870Z,12.75
2019-02-07T01:40:11.292Z,13.28
2019-02-07T01:42:40.851Z,12.80
2019-02-07T01:45:13.342Z,13.30
2019-02-07T01:47:45.129Z,13.65
2019-02-07T01:50:16.520Z,12.28
2019-02-07T01:52:47.434Z,12.40
2019-02-07T01:55:18.069Z,14.03
2019-02-07T01:57:47.903Z,10.93
2019-02-07T02:00:19.771Z,12.78
2019-02-07T02:02:50.608Z,13.53
2019-02-07T02:05:22.406Z,12.82
2019-02-07T02:07:52.527Z,12.75
2019-02-07T02:10:24.063Z,11.30
2019-02-07T02:12:57.085Z,12.03
2019-02-07T02:15:27.683Z,12.85
2019-02-07T02:17:57.536Z,15.13
2019-02-07T02:20:28.618Z,12.85
2019-02-07T02:22:59.334Z,12.45
2019-02-07T02:25:30.583Z,12.73
2019-02-07T02:28:01.868Z,13.05
2019-02-07T02:30:34.244Z,12.75
2019-02-07T02:33:04.689Z,14.15
2019-02-07T02:35:34.412Z,14.15
2019-02-07T02:38:04.115Z,12.03
2019-02-07T02:40:34.818Z,13.03
2019-02-07T02:43:05.907Z,13.38
2019-02-07T02:45:37.892Z,12.45
2019-02-07T02:48:07.133Z,12.47
2019-02-07T02:50:37.011Z,13.32
2019-02-07T02:53:07.266Z,12.95
2019-02-07T02:55:40.980Z,11.50
2019-02-07T02:58:10.671Z,14.63
2019-02-07T03:00:58.503Z,14.68
2019-02-07T03:03:33.068Z,11.35
2019-02-07T03:06:21.643Z,11.95
2019-02-07T03:09:14.786Z,13.55
2019-02-07T03:12:14.775Z,14.35
2019-02-07T03:15:04.798Z,13.18
2019-02-07T03:17:53.255Z,14.07
2019-02-07T03:20:40.689Z,13.50
2019-02-07T03:23:32.241Z,13.13
2019-02-07T03:26:22.056Z,13.00
2019-02-07T03:29:11.916Z,12.78
2019-02-07T03:32:09.688Z,13.23
2019-02-07T03:35:16.315Z,13.88
2019-02-07T03:37:59.219Z,13.05
2019-02-07T03:40:49.073Z,13.85
2019-02-07T03:43:39.354Z,13.43
2019-02-07T03:46:29.343Z,13.65
2019-02-07T03:49:21.406Z,13.08
2019-02-07T03:52:09.861Z,12.55
2019-02-07T03:55:15.230Z,14.27
2019-02-07T03:57:58.904Z,15.28
2019-02-07T04:01:03.277Z,14.83
2019-02-07T04:03:50.758Z,12.28
2019-02-07T04:06:38.142Z,13.95
2019-02-07T04:09:27.952Z,13.90
2019-02-07T04:12:11.702Z,13.68
2019-02-07T04:14:59.103Z,13.98
2019-02-07T04:17:48.878Z,13.72
2019-02-07T04:20:37.543Z,14.00
2019-02-07T04:23:26.044Z,14.10
2019-02-07T04:26:13.699Z,14.63
2019-02-07T04:29:02.502Z,11.68
2019-02-07T04:31:50.151Z,13.53
2019-02-07T04:34:55.055Z,13.22
2019-02-07T04:37:35.039Z,15.28
2019-02-07T04:40:24.606Z,13.18
2019-02-07T04:43:30.075Z,12.78
2019-02-07T04:46:27.310Z,14.55
2019-02-07T04:49:16.356Z,14.00
2019-02-07T04:52:11.142Z,14.20
2019-02-07T04:54:58.082Z,14.60
2019-02-07T04:57:49.516Z,12.85
2019-02-07T05:00:41.221Z,13.35
2019-02-07T05:03:44.933Z,11.88
2019-02-07T05:06:45.856Z,13.05
2019-02-07T05:09:39.947Z,13.65
2019-02-07T05:12:28.398Z,14.28
2019-02-07T05:15:23.941Z,13.22
2019-02-07T05:18:07.219Z,13.67
2019-02-07T05:20:44.936Z,12.73
2019-02-07T05:23:32.328Z,14.07
2019-02-07T05:26:27.162Z,11.88
2019-02-07T05:29:16.678Z,12.67
2019-02-07T05:32:02.677Z,13.43
2019-02-07T05:34:54.032Z,13.93
2019-02-07T05:37:50.012Z,14.18
2019-02-07T05:40:41.717Z,12.47
2019-02-07T05:43:30.242Z,13.43
2019-02-07T05:46:32.543Z,11.57
2019-02-07T05:49:13.043Z,14.28
2019-02-07T05:52:08.132Z,14.53
2019-02-07T05:54:55.501Z,11.60
2019-02-07T05:57:34.846Z,13.50
2019-02-07T06:00:16.612Z,12.23
2019-02-07T06:03:23.801Z,11.90
2019-02-07T06:06:15.039Z,13.70
2019-02-07T06:09:08.359Z,13.65
2019-02-07T06:12:06.024Z,13.25
2019-02-07T06:15:09.966Z,13.68
2019-02-07T06:17:59.161Z,14.00
2019-02-07T06:20:46.691Z,11.57
2019-02-07T06:23:33.921Z,13.05
2019-02-07T06:26:13.188Z,13.78
2019-02-07T06:29:10.895Z,14.37
2019-02-07T06:32:06.529Z,12.93
2019-02-07T06:35:01.508Z,14.65
2019-02-07T06:37:53.223Z,12.53
2019-02-07T06:40:42.717Z,13.95
2019-02-07T06:43:29.945Z,12.45
2019-02-07T06:46:11.147Z,12.73
2019-02-07T06:49:19.989Z,13.58
2019-02-07T06:52:08.966Z,13.55
2019-02-07T06:54:56.502Z,11.78
2019-02-07T06:57:43.727Z,12.70
2019-02-07T07:00:33.279Z,13.32
2019-02-07T07:03:22.687Z,13.20
2019-02-07T07:06:24.829Z,13.37
2019-02-07T07:09:18.132Z,14.47
2019-02-07T07:15:29.462Z,13.28
2019-02-07T07:18:36.522Z,12.65
2019-02-07T07:21:37.365Z,13.35
2019-02-07T07:24:26.611Z,13.30
2019-02-07T07:27:21.715Z,13.88
2019-02-07T07:30:27.617Z,13.53
2019-02-07T07:33:10.483Z,15.18
2019-02-07T07:36:11.184Z,13.22
2019-02-07T07:38:55.451Z,12.95
2019-02-07T07:41:57.052Z,13.00
2019-02-07T07:44:45.690Z,12.95
2019-02-07T07:47:40.415Z,13.68
2019-02-07T07:50:44.929Z,15.35
2019-02-07T07:53:33.595Z,12.47
2019-02-07T07:56:22.108Z,12.95
2019-02-07T07:59:09.847Z,13.83
2019-02-07T08:01:58.282Z,12.25
2019-02-07T08:04:58.891Z,12.55
2019-02-07T08:07:51.763Z,14.18
2019-02-07T08:10:40.640Z,13.18
2019-02-07T08:13:23.421Z,12.23
2019-02-07T08:16:15.255Z,12.95
2019-02-07T08:19:02.683Z,13.10
2019-02-07T08:21:41.575Z,11.53
2019-02-07T08:24:28.929Z,11.97
2019-02-07T08:27:20.510Z,12.95
2019-02-07T08:30:11.870Z,12.65
2019-02-07T08:33:14.046Z,13.50
2019-02-07T08:36:06.679Z,13.10
2019-02-07T08:39:05.511Z,13.10
2019-02-07T08:42:06.239Z,11.90
2019-02-07T08:44:55.506Z,12.47
2019-02-07T08:47:45.731Z,12.13
2019-02-07T08:50:29.976Z,12.75
2019-02-07T08:53:25.402Z,12.45
2019-02-07T08:56:25.599Z,11.60
2019-02-07T08:59:17.389Z,11.12
2019-02-07T09:02:09.325Z,11.90
2019-02-07T09:04:57.893Z,12.03
2019-02-07T09:08:05.498Z,10.97
2019-02-07T09:10:53.311Z,10.28
2019-02-07T09:13:40.523Z,10.37
2019-02-07T09:16:37.974Z,10.10
2019-02-07T09:19:29.617Z,10.43
2019-02-07T09:22:10.339Z,10.45
2019-02-07T09:24:57.504Z,10.53
2019-02-07T09:27:58.903Z,10.82
2019-02-07T09:31:00.794Z,10.50
2019-02-07T09:33:50.288Z,10.23
2019-02-07T09:36:39.535Z,11.15
2019-02-07T09:39:43.842Z,11.67
2019-02-07T09:42:46.873Z,10.88
2019-02-07T09:45:38.156Z,11.10
2019-02-07T09:48:41.919Z,12.03
2019-02-07T09:51:34.595Z,11.33
2019-02-07T09:54:24.471Z,10.77
2019-02-07T09:57:22.119Z,12.47
2019-02-07T10:00:14.798Z,10.80
2019-02-07T10:03:04.910Z,11.12
2019-02-07T10:05:56.872Z,11.53
2019-02-07T10:08:51.803Z,11.57
2019-02-07T10:11:41.701Z,11.45
2019-02-07T10:14:42.192Z,11.53
2019-02-07T10:17:43.719Z,11.15
2019-02-07T10:20:22.637Z,12.05
2019-02-07T10:23:23.414Z,11.63
2019-02-07T10:26:22.826Z,11.18
2019-02-07T10:29:18.367Z,10.90
2019-02-07T10:32:07.552Z,10.32
2019-02-07T10:35:05.432Z,11.22
2019-02-07T10:37:52.150Z,11.53
2019-02-07T10:40:56.900Z,11.15
2019-02-07T10:43:43.740Z,10.18
2019-02-07T10:46:33.593Z,11.20
2019-02-07T10:49:41.793Z,11.35
2019-02-07T10:52:31.911Z,11.18
2019-02-07T10:55:26.378Z,11.25
2019-02-07T10:58:33.463Z,11.15
2019-02-07T11:01:15.508Z,10.72
2019-02-07T11:04:06.916Z,10.23
2019-02-07T11:06:51.019Z,10.70
2019-02-07T11:09:57.693Z,10.35
2019-02-07T11:12:49.323Z,10.23
2019-02-07T11:15:38.959Z,11.10
2019-02-07T11:18:33.627Z,9.88
2019-02-07T11:21:21.254Z,10.38
2019-02-07T11:24:13.072Z,11.73
2019-02-07T11:27:02.454Z,12.43
2019-02-07T11:29:58.671Z,10.90
2019-02-07T11:32:47.287Z,10.67
2019-02-07T11:35:39.647Z,11.50
2019-02-07T11:38:21.235Z,10.20
2019-02-07T11:41:09.869Z,11.50
2019-02-07T11:44:07.567Z,11.50
2019-02-07T11:47:06.681Z,11.18
2019-02-07T11:50:15.379Z,11.03
2019-02-07T11:53:09.733Z,11.97
2019-02-07T11:55:51.195Z,11.73
2019-02-07T11:58:45.635Z,10.55
2019-02-07T12:01:32.571Z,10.70
2019-02-07T12:04:22.091Z,11.70
2019-02-07T12:07:10.363Z,10.83
2019-02-07T12:09:47.771Z,10.82
2019-02-07T12:12:30.295Z,11.30
2019-02-07T12:15:25.114Z,11.83
2019-02-07T12:18:27.163Z,10.88
2019-02-07T12:21:24.739Z,9.57
2019-02-07T12:24:25.684Z,10.18
2019-02-07T12:27:21.931Z,10.65
2019-02-07T12:30:00.897Z,10.72
2019-02-07T12:32:45.983Z,10.15
2019-02-07T12:35:55.484Z,10.15
2019-02-07T12:38:58.813Z,11.28
2019-02-07T12:41:46.924Z,10.48
2019-02-07T12:44:51.876Z,10.40
2019-02-07T12:47:36.932Z,10.50
2019-02-07T12:50:32.675Z,9.23
2019-02-07T12:53:32.792Z,10.68
2019-02-07T12:56:38.932Z,8.90
2019-02-07T12:59:37.139Z,9.13
2019-02-07T13:02:25.268Z,9.40
2019-02-07T13:05:19.270Z,8.60
2019-02-07T13:08:05.932Z,11.08
2019-02-07T13:11:04.692Z,10.40
2019-02-07T13:14:03.470Z,10.35
2019-02-07T13:17:03.723Z,9.33
2019-02-07T13:20:00.808Z,10.13
2019-02-07T13:23:04.510Z,9.73
2019-02-07T13:25:58.535Z,9.63
2019-02-07T13:28:46.520Z,9.33
2019-02-07T13:31:35.470Z,10.18
2019-02-07T13:34:33.134Z,9.03
2019-02-07T13:37:22.689Z,9.43
2019-02-07T13:40:08.735Z,9.80
2019-02-07T13:42:55.040Z,9.85
2019-02-07T13:45:47.185Z,10.03
2019-02-07T13:48:29.639Z,10.08
2019-02-07T13:51:16.751Z,10.00
2019-02-07T13:54:08.381Z,9.23
2019-02-07T13:57:05.986Z,9.27
2019-02-07T14:00:02.600Z,10.60
2019-02-07T14:02:51.174Z,9.98
2019-02-07T14:05:44.324Z,8.78
2019-02-07T14:08:38.373Z,9.15
2019-02-07T14:11:26.519Z,9.10
2019-02-07T14:14:13.444Z,8.80
2019-02-07T14:17:06.042Z,8.55
2019-02-07T14:19:51.266Z,9.83
2019-02-07T14:22:35.340Z,9.70
2019-02-07T14:25:22.134Z,8.05
2019-02-07T14:28:22.592Z,8.90
2019-02-07T14:31:07.907Z,7.70
2019-02-07T14:33:58.927Z,8.28
2019-02-07T14:36:45.460Z,9.05
2019-02-07T14:39:31.075Z,9.17
2019-02-07T14:42:16.765Z,9.03
2019-02-07T14:45:23.299Z,8.73
2019-02-07T14:47:54.598Z,8.93
2019-02-07T14:50:25.111Z,8.70
2019-02-07T14:52:54.266Z,10.43
2019-02-07T14:55:25.303Z,9.30
2019-02-07T14:57:54.491Z,8.97
2019-02-07T15:00:24.011Z,9.55
2019-02-07T15:02:53.383Z,8.55
2019-02-07T15:05:22.402Z,9.40
2019-02-07T15:07:53.313Z,8.05
2019-02-07T15:10:24.850Z,8.83
2019-02-07T15:12:53.803Z,7.78
2019-02-07T15:15:23.022Z,9.28
2019-02-07T15:17:52.170Z,8.55
2019-02-07T15:20:26.107Z,8.93
2019-02-07T15:22:51.991Z,9.57
2019-02-07T15:25:21.027Z,8.05
2019-02-07T15:27:50.003Z,8.80
2019-02-07T15:30:19.112Z,8.15
2019-02-07T15:32:48.231Z,7.80
2019-02-07T15:35:18.604Z,7.15
2019-02-07T15:37:47.950Z,9.63
2019-02-07T15:40:21.092Z,7.70
2019-02-07T15:42:52.164Z,8.63
2019-02-07T15:45:21.835Z,8.30
2019-02-07T15:47:51.935Z,8.18
2019-02-07T15:50:24.323Z,8.20
2019-02-07T15:52:57.588Z,8.67
2019-02-07T15:55:27.304Z,8.68
2019-02-07T15:57:57.564Z,7.97
2019-02-07T16:00:45.366Z,8.88
2019-02-07T16:03:22.200Z,9.10
2019-02-07T16:05:55.200Z,8.65
2019-02-07T16:08:25.867Z,7.67
2019-02-07T16:10:56.669Z,8.63
2019-02-07T16:13:26.258Z,8.65
2019-02-07T16:15:58.453Z,8.88
2019-02-07T16:18:28.081Z,8.67
2019-02-07T16:21:00.135Z,8.05
2019-02-07T16:23:31.673Z,8.00
2019-02-07T16:26:03.383Z,8.78
2019-02-07T16:28:34.891Z,7.30
2019-02-07T16:31:05.328Z,10.18
2019-02-07T16:33:34.893Z,7.92
2019-02-07T16:36:06.359Z,8.28
2019-02-07T16:38:35.928Z,7.35
2019-02-07T16:41:06.209Z,8.75
2019-02-07T16:43:38.647Z,7.83
2019-02-07T16:46:08.288Z,8.68
2019-02-07T16:48:37.880Z,8.63
2019-02-07T16:51:07.607Z,7.35
2019-02-07T16:53:37.173Z,9.35
2019-02-07T16:56:07.535Z,9.05
2019-02-07T16:58:39.098Z,10.38
2019-02-07T17:01:10.071Z,8.85
2019-02-07T17:03:40.263Z,8.48
2019-02-07T17:06:10.409Z,8.63
2019-02-07T17:08:44.525Z,7.80
2019-02-07T17:11:15.627Z,8.63
2019-02-07T17:13:46.362Z,9.35
2019-02-07T17:16:18.983Z,7.63
2019-02-07T17:18:50.345Z,7.83
2019-02-07T17:21:20.484Z,9.87
2019-02-07T17:23:51.156Z,8.38
2019-02-07T17:26:20.843Z,8.25
2019-02-07T17:28:50.532Z,8.78
2019-02-07T17:31:20.150Z,8.70
2019-02-07T17:33:52.522Z,9.33
2019-02-07T17:36:24.107Z,7.87
2019-02-07T17:38:56.580Z,8.43
2019-02-07T17:41:27.371Z,8.15
2019-02-07T17:43:58.227Z,8.03
2019-02-07T17:46:27.807Z,8.20
2019-02-07T17:48:58.249Z,8.57
2019-02-07T17:51:27.945Z,8.35
2019-02-07T17:53:57.619Z,8.58
2019-02-07T17:56:28.893Z,8.48
2019-02-07T17:58:58.547Z,8.93
2019-02-07T18:01:28.242Z,8.85
2019-02-07T18:03:58.082Z,8.55
2019-02-07T18:06:27.727Z,7.47
2019-02-07T18:08:57.363Z,8.23
2019-02-07T18:11:27.143Z,8.80
2019-02-07T18:14:00.851Z,8.77
2019-02-07T18:16:31.591Z,8.45
2019-02-07T18:19:01.258Z,8.45
2019-02-07T18:21:34.263Z,10.38
2019-02-07T18:24:05.588Z,9.18
2019-02-07T18:26:36.390Z,8.88
2019-02-07T18:29:06.775Z,7.90
2019-02-07T18:31:36.475Z,8.40
2019-02-07T18:34:07.412Z,8.63
2019-02-07T18:36:37.684Z,8.85
2019-02-07T18:39:09.839Z,8.08
2019-02-07T18:41:39.427Z,8.10
2019-02-07T18:44:12.328Z,8.85
2019-02-07T18:46:42.061Z,8.03
2019-02-07T18:49:11.732Z,8.58
2019-02-07T18:51:45.655Z,8.30
2019-02-07T18:54:14.359Z,8.40
2019-02-07T18:56:45.815Z,8.63
2019-02-07T18:59:16.101Z,8.10
2019-02-07T19:01:45.853Z,8.45
2019-02-07T19:04:17.345Z,8.13
2019-02-07T19:06:47.435Z,7.53
2019-02-07T19:09:17.238Z,8.80
2019-02-07T19:11:48.603Z,7.33
2019-02-07T19:14:19.619Z,7.70
2019-02-07T19:16:51.163Z,8.78
2019-02-07T19:19:22.681Z,8.65
2019-02-07T19:21:57.256Z,8.55
2019-02-07T19:24:25.895Z,8.25
2019-02-07T19:26:55.635Z,7.90
2019-02-07T19:29:26.415Z,7.97
2019-02-07T19:31:57.436Z,8.85
2019-02-07T19:34:29.883Z,7.72
2019-02-07T19:37:00.115Z,7.87
2019-02-07T19:39:30.463Z,9.75
2019-02-07T19:42:00.110Z,9.00
2019-02-07T19:44:29.872Z,8.00
2019-02-07T19:46:59.744Z,9.20
2019-02-07T19:49:31.759Z,8.58
2019-02-07T19:52:08.226Z,8.68
2019-02-07T19:54:33.043Z,8.35
2019-02-07T19:57:04.454Z,9.38
2019-02-07T19:59:37.139Z,9.00
2019-02-07T20:02:06.961Z,8.03
2019-02-07T20:04:36.715Z,8.50
2019-02-07T20:07:06.660Z,8.03
2019-02-07T20:09:36.419Z,8.25
2019-02-07T20:12:09.394Z,8.98
2019-02-07T20:14:40.502Z,8.55
2019-02-07T20:17:11.259Z,8.15
2019-02-07T20:19:41.959Z,8.93
2019-02-07T20:22:19.754Z,8.70
2019-02-07T20:24:46.242Z,8.35
2019-02-07T20:27:17.978Z,7.90
2019-02-07T20:29:47.738Z,8.25
2019-02-07T20:32:17.330Z,9.15
2019-02-07T20:34:48.745Z,8.85
2019-02-07T20:37:19.847Z,8.23
2019-02-07T20:39:49.574Z,8.93
2019-02-07T20:42:21.314Z,8.87
2019-02-07T20:44:51.282Z,8.13
2019-02-07T20:47:23.188Z,8.53
2019-02-07T20:49:53.855Z,8.90
2019-02-07T20:52:27.311Z,7.75
2019-02-07T20:54:56.204Z,8.90
2019-02-07T20:57:26.795Z,8.60
2019-02-07T20:59:58.159Z,8.28
2019-02-07T21:02:27.767Z,8.30
2019-02-07T21:04:58.850Z,9.20
2019-02-07T21:07:28.595Z,8.65
2019-02-07T21:10:00.029Z,9.13
2019-02-07T21:12:31.404Z,8.30
2019-02-07T21:15:01.125Z,8.70
2019-02-07T21:17:30.751Z,8.48
2019-02-07T21:20:01.552Z,9.10
2019-02-07T21:22:34.596Z,8.38
2019-02-07T21:25:05.708Z,7.75
2019-02-07T21:27:37.619Z,7.83
2019-02-07T21:30:10.819Z,8.27
2019-02-07T21:32:40.498Z,9.65
2019-02-07T21:35:12.558Z,9.70
2019-02-07T21:37:43.187Z,8.13
2019-02-07T21:40:15.396Z,8.30
2019-02-07T21:42:46.174Z,8.13
2019-02-07T21:45:17.759Z,8.97
2019-02-07T21:47:47.330Z,8.87
2019-02-07T21:50:20.883Z,8.20
2019-02-07T21:52:50.690Z,8.43
2019-02-07T21:55:21.788Z,8.20
2019-02-07T21:57:51.520Z,9.53
2019-02-07T22:00:25.407Z,8.23
2019-02-07T22:02:55.811Z,7.83
2019-02-07T22:05:28.599Z,8.30
2019-02-07T22:07:58.304Z,8.78
2019-02-07T22:10:30.846Z,9.08
2019-02-07T22:13:00.606Z,9.10
2019-02-07T22:15:31.966Z,8.53
2019-02-07T22:18:01.690Z,8.43
2019-02-07T22:20:34.376Z,8.53
2019-02-07T22:23:04.127Z,8.85
2019-02-07T22:25:36.160Z,8.65
2019-02-07T22:28:06.543Z,8.60
2019-02-07T22:30:37.759Z,8.27
2019-02-07T22:33:08.109Z,8.00
2019-02-07T22:35:39.963Z,9.00
2019-02-07T22:38:10.331Z,8.10
2019-02-07T22:40:40.003Z,7.37
2019-02-07T22:43:11.792Z,8.15
2019-02-07T22:45:43.254Z,7.72
2019-02-07T22:48:13.062Z,8.28
2019-02-07T22:50:44.680Z,10.08
2019-02-07T22:53:14.263Z,8.25
2019-02-07T22:55:43.955Z,9.03
2019-02-07T22:58:14.247Z,8.37
2019-02-07T23:01:28.494Z,8.03
2019-02-07T23:04:03.559Z,8.90
2019-02-07T23:06:33.203Z,7.47
2019-02-07T23:09:05.399Z,8.50
2019-02-07T23:11:34.967Z,9.45
2019-02-07T23:14:05.447Z,7.55
2019-02-07T23:16:35.174Z,7.28
2019-02-07T23:19:06.619Z,8.68
2019-02-07T23:21:39.144Z,9.03
2019-02-07T23:24:11.772Z,7.97
2019-02-07T23:26:41.442Z,8.43
2019-02-07T23:29:12.227Z,9.13
2019-02-07T23:31:42.467Z,9.40
2019-02-07T23:34:13.526Z,9.33
2019-02-07T23:36:44.825Z,8.70
2019-02-07T23:39:15.671Z,8.13
2019-02-07T23:41:47.366Z,9.00
2019-02-07T23:44:17.216Z,8.30
2019-02-07T23:46:46.917Z,8.23
2019-02-07T23:49:16.715Z,8.58
2019-02-07T23:51:46.346Z,9.45
2019-02-07T23:54:16.245Z,8.23
2019-02-07T23:56:45.826Z,8.53
2019-02-07T23:59:15.848Z,9.20
